Retalhuleu Airport

Airport
ICAO code: 
MGRT
IATA Code: 
RER
Summary
ICAO Region: 
CARSAM
Territory: 
Location: 
Retalhuleu, Retalhuleu Department
Serving: 
Retalhuleu
Elevation: 
656 ft
Coordinates: 
Aerial View: 
14° 31' 25.519" N, 91° 41' 41.645" W
Metar
Observation
MGRT 212300Z 22006KT 9999 FEW022 31/21 Q1012 A2988 VOL. SANTA MARIA Y SANTIAGUITO EN ACTIVIDAD
Station
Retalhuleu
Date/Time
2022-01-21 23:00:00
Wind direction
220°
Wind speed
06 kts
Lowest cloud amount
few clouds
Temperature
31°C
Dew point
21°C
Humidity
55%
QNH
1012 hPa
Weather condition
n/a

Retalhuleu Airport, or Base Aérea del Sur, is an airport serving Retalhuleu, the capital of Retalhuleu Department in Guatemala.

Climatology

Tropical savannah climate (Köppen climate classification Aw)

Runways

Designator Length Width Surface Rops
4/22 1544 30 ASP No/No
Airport map: 
Aerial View: 

SKYbrary Partners:

Safety knowledge contributed by: